sensor_id;sensor_type;location;lat;lon;timestamp;pressure;altitude;pressure_sealevel;temperature;humidity
41688;BME280;27371;42.686;23.362;2022-10-26T00:03:59;166315.28;;;15.77;63.31
41688;BME280;27371;42.686;23.362;2022-10-26T00:06:25;166305.84;;;15.74;63.19
41688;BME280;27371;42.686;23.362;2022-10-26T00:08:53;166308.56;;;15.75;63.29
41688;BME280;27371;42.686;23.362;2022-10-26T00:11:20;166300.53;;;15.72;63.36
41688;BME280;27371;42.686;23.362;2022-10-26T00:13:48;166301.88;;;15.72;63.42
41688;BME280;27371;42.686;23.362;2022-10-26T00:16:23;166297.81;;;15.71;63.51
41688;BME280;27371;42.686;23.362;2022-10-26T00:18:49;166295.16;;;15.70;63.43
41688;BME280;27371;42.686;23.362;2022-10-26T00:21:15;166281.69;;;15.65;63.33
41688;BME280;27371;42.686;23.362;2022-10-26T00:23:41;166288.41;;;15.67;63.31
41688;BME280;27371;42.686;23.362;2022-10-26T00:26:06;166288.41;;;15.67;63.44
41688;BME280;27371;42.686;23.362;2022-10-26T00:28:32;166281.69;;;15.65;63.55
41688;BME280;27371;42.686;23.362;2022-10-26T00:31:06;166275.00;;;15.62;63.89
41688;BME280;27371;42.686;23.362;2022-10-26T00:33:32;166273.66;;;15.62;63.95
41688;BME280;27371;42.686;23.362;2022-10-26T00:35:58;166266.97;;;15.59;63.80
41688;BME280;27371;42.686;23.362;2022-10-26T00:38:24;166261.59;;;15.57;63.82
41688;BME280;27371;42.686;23.362;2022-10-26T00:40:49;166261.59;;;15.57;63.94
41688;BME280;27371;42.686;23.362;2022-10-26T00:45:48;166246.84;;;15.51;63.81
41688;BME280;27371;42.686;23.362;2022-10-26T00:48:24;166258.91;;;15.56;63.99
41688;BME280;27371;42.686;23.362;2022-10-26T00:50:51;166257.59;;;15.55;63.70
41688;BME280;27371;42.686;23.362;2022-10-26T00:53:18;166253.53;;;15.54;64.01
41688;BME280;27371;42.686;23.362;2022-10-26T00:55:48;166248.16;;;15.52;63.76
41688;BME280;27371;42.686;23.362;2022-10-26T00:58:14;166242.84;;;15.50;63.87
41688;BME280;27371;42.686;23.362;2022-10-26T01:00:41;166220.06;;;15.41;63.69
41688;BME280;27371;42.686;23.362;2022-10-26T01:03:08;166233.44;;;15.46;63.96
41688;BME280;27371;42.686;23.362;2022-10-26T01:05:36;166225.41;;;15.43;64.12
41688;BME280;27371;42.686;23.362;2022-10-26T01:08:03;166213.38;;;15.39;64.08
41688;BME280;27371;42.686;23.362;2022-10-26T01:10:29;166216.03;;;15.40;64.37
41688;BME280;27371;42.686;23.362;2022-10-26T01:12:56;166208.00;;;15.36;64.30
41688;BME280;27371;42.686;23.362;2022-10-26T01:18:39;166201.28;;;15.34;64.53
41688;BME280;27371;42.686;23.362;2022-10-26T01:23:52;166190.56;;;15.30;64.60
41688;BME280;27371;42.686;23.362;2022-10-26T01:29:38;166177.19;;;15.25;64.73
41688;BME280;27371;42.686;23.362;2022-10-26T01:35:07;166162.47;;;15.19;64.75
41688;BME280;27371;42.686;23.362;2022-10-26T01:37:37;166157.09;;;15.17;65.32
41688;BME280;27371;42.686;23.362;2022-10-26T01:40:09;166154.38;;;15.16;65.06
41688;BME280;27371;42.686;23.362;2022-10-26T01:42:40;166134.31;;;15.08;65.03
41688;BME280;27371;42.686;23.362;2022-10-26T01:45:10;166116.88;;;15.02;65.26
41688;BME280;27371;42.686;23.362;2022-10-26T01:47:37;166130.28;;;15.07;65.81
41688;BME280;27371;42.686;23.362;2022-10-26T01:50:05;166118.19;;;15.02;65.98
41688;BME280;27371;42.686;23.362;2022-10-26T01:52:31;166107.50;;;14.98;66.25
41688;BME280;27371;42.686;23.362;2022-10-26T01:55:36;166092.78;;;14.92;66.28
41688;BME280;27371;42.686;23.362;2022-10-26T01:57:53;166090.13;;;14.91;66.57
41688;BME280;27371;42.686;23.362;2022-10-26T02:00:26;166076.72;;;14.86;66.73
41688;BME280;27371;42.686;23.362;2022-10-26T02:09:30;166041.88;;;14.73;66.85
41688;BME280;27371;42.686;23.362;2022-10-26T02:12:02;166033.84;;;14.70;67.18
41688;BME280;27371;42.686;23.362;2022-10-26T02:14:47;166036.50;;;14.71;67.31
41688;BME280;27371;42.686;23.362;2022-10-26T02:18:11;166016.38;;;14.63;67.37
41688;BME280;27371;42.686;23.362;2022-10-26T02:20:35;165977.50;;;14.48;67.95
41688;BME280;27371;42.686;23.362;2022-10-26T02:23:04;165964.13;;;14.43;67.91
41688;BME280;27371;42.686;23.362;2022-10-26T02:25:34;165984.22;;;14.51;68.11
41688;BME280;27371;42.686;23.362;2022-10-26T02:28:06;165962.78;;;14.43;68.01
41688;BME280;27371;42.686;23.362;2022-10-26T02:30:33;165919.94;;;14.26;67.91
41688;BME280;27371;42.686;23.362;2022-10-26T02:33:00;165818.16;;;13.88;67.34
41688;BME280;27371;42.686;23.362;2022-10-26T02:35:33;165708.41;;;13.46;68.06
41688;BME280;27371;42.686;23.362;2022-10-26T02:38:01;165561.09;;;12.89;69.06
41688;BME280;27371;42.686;23.362;2022-10-26T02:40:30;165438.00;;;12.42;70.88
41688;BME280;27371;42.686;23.362;2022-10-26T02:43:00;165339.00;;;12.04;72.46
41688;BME280;27371;42.686;23.362;2022-10-26T02:45:36;165309.59;;;11.93;73.72
41688;BME280;27371;42.686;23.362;2022-10-26T02:48:02;165327.00;;;12.00;74.61
41688;BME280;27371;42.686;23.362;2022-10-26T02:50:37;165320.31;;;11.97;75.79
41688;BME280;27371;42.686;23.362;2022-10-26T02:53:15;165320.31;;;11.97;75.84
41688;BME280;27371;42.686;23.362;2022-10-26T02:55:48;165344.38;;;12.07;75.66
41688;BME280;27371;42.686;23.362;2022-10-26T02:58:21;165359.06;;;12.12;75.21
41688;BME280;27371;42.686;23.362;2022-10-26T03:00:50;165393.88;;;12.25;75.05
41688;BME280;27371;42.686;23.362;2022-10-26T03:03:16;165412.63;;;12.33;74.82
41688;BME280;27371;42.686;23.362;2022-10-26T03:05:42;165423.28;;;12.37;74.65
41688;BME280;27371;42.686;23.362;2022-10-26T03:08:08;165444.69;;;12.45;74.28
41688;BME280;27371;42.686;23.362;2022-10-26T03:10:41;165463.44;;;12.52;74.38
41688;BME280;27371;42.686;23.362;2022-10-26T03:13:07;165462.13;;;12.52;74.45
41688;BME280;27371;42.686;23.362;2022-10-26T03:15:33;165479.50;;;12.58;74.35
41688;BME280;27371;42.686;23.362;2022-10-26T03:17:58;165518.28;;;12.73;74.22
41688;BME280;27371;42.686;23.362;2022-10-26T03:20:24;165518.28;;;12.73;74.69
41688;BME280;27371;42.686;23.362;2022-10-26T03:22:49;165542.41;;;12.82;74.91
41688;BME280;27371;42.686;23.362;2022-10-26T03:25:15;165547.69;;;12.84;75.02
41688;BME280;27371;42.686;23.362;2022-10-26T03:27:41;165547.69;;;12.84;75.31
41688;BME280;27371;42.686;23.362;2022-10-26T03:30:07;165562.44;;;12.90;75.71
41688;BME280;27371;42.686;23.362;2022-10-26T03:32:33;165579.84;;;12.97;76.06
41688;BME280;27371;42.686;23.362;2022-10-26T03:34:58;165578.53;;;12.96;76.07
41688;BME280;27371;42.686;23.362;2022-10-26T03:37:24;165613.31;;;13.09;76.07
41688;BME280;27371;42.686;23.362;2022-10-26T03:39:49;165609.28;;;13.08;76.01
41688;BME280;27371;42.686;23.362;2022-10-26T03:42:15;165618.63;;;13.11;76.11
41688;BME280;27371;42.686;23.362;2022-10-26T03:44:40;165632.03;;;13.17;75.94
41688;BME280;27371;42.686;23.362;2022-10-26T03:47:06;165662.84;;;13.28;75.69
41688;BME280;27371;42.686;23.362;2022-10-26T03:49:31;165638.72;;;13.19;75.64
41688;BME280;27371;42.686;23.362;2022-10-26T03:51:57;165680.28;;;13.35;75.33
41688;BME280;27371;42.686;23.362;2022-10-26T03:54:22;165682.94;;;13.36;75.39
41688;BME280;27371;42.686;23.362;2022-10-26T03:56:49;165689.63;;;13.39;75.42
41688;BME280;27371;42.686;23.362;2022-10-26T03:59:15;165695.00;;;13.41;75.33
41688;BME280;27371;42.686;23.362;2022-10-26T04:01:40;165692.28;;;13.40;75.03
41688;BME280;27371;42.686;23.362;2022-10-26T04:04:06;165695.00;;;13.41;74.94
41688;BME280;27371;42.686;23.362;2022-10-26T04:06:31;165681.63;;;13.35;75.35
41688;BME280;27371;42.686;23.362;2022-10-26T04:08:57;165697.66;;;13.42;74.68
41688;BME280;27371;42.686;23.362;2022-10-26T04:11:29;165682.94;;;13.36;75.03
41688;BME280;27371;42.686;23.362;2022-10-26T04:13:55;165732.47;;;13.55;75.57
41688;BME280;27371;42.686;23.362;2022-10-26T04:16:24;165765.97;;;13.68;74.96
41688;BME280;27371;42.686;23.362;2022-10-26T04:18:49;165764.59;;;13.67;74.67
41688;BME280;27371;42.686;23.362;2022-10-26T04:21:15;165764.59;;;13.67;74.44
41688;BME280;27371;42.686;23.362;2022-10-26T04:23:40;165757.94;;;13.65;74.12
41688;BME280;27371;42.686;23.362;2022-10-26T04:26:06;165741.81;;;13.58;74.33
41688;BME280;27371;42.686;23.362;2022-10-26T04:28:32;165744.53;;;13.59;74.35
41688;BME280;27371;42.686;23.362;2022-10-26T04:30:57;165744.53;;;13.59;74.29
41688;BME280;27371;42.686;23.362;2022-10-26T04:33:22;165720.41;;;13.50;74.27
41688;BME280;27371;42.686;23.362;2022-10-26T04:35:48;165660.19;;;13.27;74.26
41688;BME280;27371;42.686;23.362;2022-10-26T04:38:13;165715.09;;;13.48;74.12
41688;BME280;27371;42.686;23.362;2022-10-26T04:40:39;165695.00;;;13.41;74.33
41688;BME280;27371;42.686;23.362;2022-10-26T04:43:04;165696.34;;;13.41;74.51
41688;BME280;27371;42.686;23.362;2022-10-26T04:45:30;165701.69;;;13.43;74.43
41688;BME280;27371;42.686;23.362;2022-10-26T04:47:59;165700.38;;;13.43;75.16
41688;BME280;27371;42.686;23.362;2022-10-26T04:50:25;165693.66;;;13.40;75.37
41688;BME280;27371;42.686;23.362;2022-10-26T04:52:52;165715.09;;;13.48;75.91
41688;BME280;27371;42.686;23.362;2022-10-26T04:55:17;165703.03;;;13.44;75.54
41688;BME280;27371;42.686;23.362;2022-10-26T04:57:43;165699.00;;;13.42;75.36
41688;BME280;27371;42.686;23.362;2022-10-26T05:00:09;165699.00;;;13.42;75.00
41688;BME280;27371;42.686;23.362;2022-10-26T05:02:35;165685.66;;;13.37;75.03
41688;BME280;27371;42.686;23.362;2022-10-26T05:05:01;165662.84;;;13.28;74.75
41688;BME280;27371;42.686;23.362;2022-10-26T05:07:26;165641.38;;;13.20;74.77
41688;BME280;27371;42.686;23.362;2022-10-26T05:09:52;165626.66;;;13.14;74.87
41688;BME280;27371;42.686;23.362;2022-10-26T05:12:18;165619.97;;;13.12;74.53
41688;BME280;27371;42.686;23.362;2022-10-26T05:14:43;165591.91;;;13.01;74.06
41688;BME280;27371;42.686;23.362;2022-10-26T05:17:09;165574.47;;;12.95;74.26
41688;BME280;27371;42.686;23.362;2022-10-26T05:19:35;165567.78;;;12.92;73.33
41688;BME280;27371;42.686;23.362;2022-10-26T05:22:00;165545.03;;;12.83;73.01
41688;BME280;27371;42.686;23.362;2022-10-26T05:24:25;165533.00;;;12.79;72.84
41688;BME280;27371;42.686;23.362;2022-10-26T05:26:51;165520.97;;;12.74;73.09
41688;BME280;27371;42.686;23.362;2022-10-26T05:29:16;165526.28;;;12.76;73.28
41688;BME280;27371;42.686;23.362;2022-10-26T05:31:42;165550.41;;;12.85;73.57
41688;BME280;27371;42.686;23.362;2022-10-26T05:34:07;165442.03;;;12.44;73.71
41688;BME280;27371;42.686;23.362;2022-10-26T05:36:33;165518.28;;;12.73;73.61
41688;BME280;27371;42.686;23.362;2022-10-26T05:38:58;165492.88;;;12.63;73.54
41688;BME280;27371;42.686;23.362;2022-10-26T05:41:24;165455.44;;;12.49;73.28
41688;BME280;27371;42.686;23.362;2022-10-26T05:43:49;165424.63;;;12.37;73.25
41688;BME280;27371;42.686;23.362;2022-10-26T05:46:15;165411.25;;;12.32;73.51
41688;BME280;27371;42.686;23.362;2022-10-26T05:48:40;165429.97;;;12.39;73.71
41688;BME280;27371;42.686;23.362;2022-10-26T05:51:06;165479.50;;;12.58;73.42
41688;BME280;27371;42.686;23.362;2022-10-26T05:53:31;165502.22;;;12.67;72.93
41688;BME280;27371;42.686;23.362;2022-10-26T05:55:57;165518.28;;;12.73;73.06
41688;BME280;27371;42.686;23.362;2022-10-26T05:58:23;165582.50;;;12.98;72.49
41688;BME280;27371;42.686;23.362;2022-10-26T06:03:56;165664.22;;;13.29;72.08
41688;BME280;27371;42.686;23.362;2022-10-26T06:06:35;165705.69;;;13.45;71.33
41688;BME280;27371;42.686;23.362;2022-10-26T06:09:02;165705.69;;;13.45;70.86
41688;BME280;27371;42.686;23.362;2022-10-26T06:11:27;165747.19;;;13.61;69.96
41688;BME280;27371;42.686;23.362;2022-10-26T06:13:53;165761.91;;;13.66;69.80
41688;BME280;27371;42.686;23.362;2022-10-26T06:17:01;165830.22;;;13.92;69.04
41688;BME280;27371;42.686;23.362;2022-10-26T06:30:57;166147.72;;;15.13;67.13
41688;BME280;27371;42.686;23.362;2022-10-26T06:33:23;166163.78;;;15.20;66.92
41688;BME280;27371;42.686;23.362;2022-10-26T06:38:34;166252.22;;;15.53;66.28
41688;BME280;27371;42.686;23.362;2022-10-26T06:41:02;166280.38;;;15.64;65.84
41688;BME280;27371;42.686;23.362;2022-10-26T06:43:31;166315.28;;;15.77;65.77
41688;BME280;27371;42.686;23.362;2022-10-26T06:48:57;166466.75;;;16.35;64.00
41688;BME280;27371;42.686;23.362;2022-10-26T06:51:26;166520.38;;;16.56;62.60
41688;BME280;27371;42.686;23.362;2022-10-26T06:54:07;166560.63;;;16.71;61.33
41688;BME280;27371;42.686;23.362;2022-10-26T06:56:37;166556.56;;;16.69;61.09
41688;BME280;27371;42.686;23.362;2022-10-26T06:59:07;166596.88;;;16.85;61.32
41688;BME280;27371;42.686;23.362;2022-10-26T07:01:37;166670.63;;;17.13;60.97
41688;BME280;27371;42.686;23.362;2022-10-26T07:04:02;166722.94;;;17.33;60.91
41688;BME280;27371;42.686;23.362;2022-10-26T07:06:28;166688.03;;;17.20;60.38
41688;BME280;27371;42.686;23.362;2022-10-26T07:08:54;166751.13;;;17.44;60.13
41688;BME280;27371;42.686;23.362;2022-10-26T07:11:19;166769.91;;;17.51;60.31
41688;BME280;27371;42.686;23.362;2022-10-26T07:13:45;166790.00;;;17.58;60.12
41688;BME280;27371;42.686;23.362;2022-10-26T07:16:10;166726.97;;;17.34;60.09
41688;BME280;27371;42.686;23.362;2022-10-26T07:18:36;166810.13;;;17.66;59.91
41688;BME280;27371;42.686;23.362;2022-10-26T07:21:01;166853.13;;;17.83;59.25
41688;BME280;27371;42.686;23.362;2022-10-26T07:23:27;166910.81;;;18.05;58.77
41688;BME280;27371;42.686;23.362;2022-10-26T07:25:52;166969.88;;;18.27;57.75
41688;BME280;27371;42.686;23.362;2022-10-26T07:28:18;166968.53;;;18.27;57.78
41688;BME280;27371;42.686;23.362;2022-10-26T07:30:43;166981.97;;;18.32;57.37
41688;BME280;27371;42.686;23.362;2022-10-26T07:33:11;166996.72;;;18.37;57.07
41688;BME280;27371;42.686;23.362;2022-10-26T07:35:37;167004.78;;;18.40;56.79
41688;BME280;27371;42.686;23.362;2022-10-26T07:38:03;167014.16;;;18.44;57.17
41688;BME280;27371;42.686;23.362;2022-10-26T07:40:30;167045.06;;;18.56;56.50
41688;BME280;27371;42.686;23.362;2022-10-26T07:42:56;167059.81;;;18.61;56.26
41688;BME280;27371;42.686;23.362;2022-10-26T07:45:23;167083.97;;;18.70;55.98
41688;BME280;27371;42.686;23.362;2022-10-26T07:47:49;167108.16;;;18.80;55.55
41688;BME280;27371;42.686;23.362;2022-10-26T07:50:15;167117.59;;;18.83;55.15
41688;BME280;27371;42.686;23.362;2022-10-26T07:52:40;167126.97;;;18.87;55.20
41688;BME280;27371;42.686;23.362;2022-10-26T07:55:07;167178.00;;;19.06;54.90
41688;BME280;27371;42.686;23.362;2022-10-26T07:57:34;167212.91;;;19.20;54.03
41688;BME280;27371;42.686;23.362;2022-10-26T07:59:59;167231.69;;;19.27;53.82
41688;BME280;27371;42.686;23.362;2022-10-26T08:02:25;167249.19;;;19.33;53.60
41688;BME280;27371;42.686;23.362;2022-10-26T08:04:50;167281.38;;;19.46;53.35
41688;BME280;27371;42.686;23.362;2022-10-26T08:07:16;167325.69;;;19.63;52.96
41688;BME280;27371;42.686;23.362;2022-10-26T08:09:41;167347.22;;;19.71;52.71
41688;BME280;27371;42.686;23.362;2022-10-26T08:12:07;167356.66;;;19.74;52.36
41688;BME280;27371;42.686;23.362;2022-10-26T08:14:33;167355.34;;;19.74;51.88
41688;BME280;27371;42.686;23.362;2022-10-26T08:16:58;167388.88;;;19.87;51.86
41688;BME280;27371;42.686;23.362;2022-10-26T08:19:24;167401.00;;;19.91;51.74
41688;BME280;27371;42.686;23.362;2022-10-26T08:21:49;167387.56;;;19.86;51.68
41688;BME280;27371;42.686;23.362;2022-10-26T08:24:14;167396.94;;;19.90;51.81
41688;BME280;27371;42.686;23.362;2022-10-26T08:26:40;167374.13;;;19.81;51.82
41688;BME280;27371;42.686;23.362;2022-10-26T08:29:06;167391.59;;;19.88;52.01
41688;BME280;27371;42.686;23.362;2022-10-26T08:31:31;167442.66;;;20.07;51.17
41688;BME280;27371;42.686;23.362;2022-10-26T08:33:57;167446.66;;;20.09;50.68
41688;BME280;27371;42.686;23.362;2022-10-26T08:36:25;167457.41;;;20.13;50.83
41688;BME280;27371;42.686;23.362;2022-10-26T08:38:51;167484.25;;;20.23;50.16
41688;BME280;27371;42.686;23.362;2022-10-26T08:41:19;167477.53;;;20.20;50.19
41688;BME280;27371;42.686;23.362;2022-10-26T08:43:52;167495.03;;;20.27;49.73
41688;BME280;27371;42.686;23.362;2022-10-26T08:46:22;167544.75;;;20.46;49.28
41688;BME280;27371;42.686;23.362;2022-10-26T08:49:03;167497.69;;;20.28;49.18
41688;BME280;27371;42.686;23.362;2022-10-26T08:51:34;167496.38;;;20.28;49.12
41688;BME280;27371;42.686;23.362;2022-10-26T08:56:39;167532.63;;;20.41;48.74
41688;BME280;27371;42.686;23.362;2022-10-26T08:59:16;167554.13;;;20.50;48.08
41688;BME280;27371;42.686;23.362;2022-10-26T09:01:44;167597.19;;;20.66;47.96
41688;BME280;27371;42.686;23.362;2022-10-26T09:04:11;167616.03;;;20.73;47.67
41688;BME280;27371;42.686;23.362;2022-10-26T09:10:06;167616.03;;;20.73;47.33
41688;BME280;27371;42.686;23.362;2022-10-26T09:12:47;167616.03;;;20.73;47.28
41688;BME280;27371;42.686;23.362;2022-10-26T09:15:31;167617.34;;;20.74;47.10
41688;BME280;27371;42.686;23.362;2022-10-26T09:23:30;167711.44;;;21.09;45.56
41688;BME280;27371;42.686;23.362;2022-10-26T09:26:01;167689.94;;;21.01;45.38
41688;BME280;27371;42.686;23.362;2022-10-26T09:28:34;167676.47;;;20.96;45.98
41688;BME280;27371;42.686;23.362;2022-10-26T09:31:02;167683.19;;;20.99;45.22
41688;BME280;27371;42.686;23.362;2022-10-26T09:33:30;167700.66;;;21.05;45.28
41688;BME280;27371;42.686;23.362;2022-10-26T09:36:01;167681.88;;;20.98;44.72
41688;BME280;27371;42.686;23.362;2022-10-26T09:38:30;167703.38;;;21.06;44.41
41688;BME280;27371;42.686;23.362;2022-10-26T09:45:54;167680.47;;;20.98;44.20
41688;BME280;27371;42.686;23.362;2022-10-26T09:48:32;167683.19;;;20.99;43.79
41688;BME280;27371;42.686;23.362;2022-10-26T09:51:00;167701.97;;;21.06;43.53
41688;BME280;27371;42.686;23.362;2022-10-26T09:53:25;167704.69;;;21.07;43.68
41688;BME280;27371;42.686;23.362;2022-10-26T09:56:10;167703.38;;;21.06;43.68
41688;BME280;27371;42.686;23.362;2022-10-26T10:01:05;167735.59;;;21.19;42.72
41688;BME280;27371;42.686;23.362;2022-10-26T10:03:32;167736.94;;;21.19;42.43
41688;BME280;27371;42.686;23.362;2022-10-26T10:06:18;167699.31;;;21.05;42.25
41688;BME280;27371;42.686;23.362;2022-10-26T10:09:09;167724.88;;;21.15;41.61
41688;BME280;27371;42.686;23.362;2022-10-26T10:14:07;167714.09;;;21.10;41.42
41688;BME280;27371;42.686;23.362;2022-10-26T10:16:33;167718.16;;;21.12;41.32
41688;BME280;27371;42.686;23.362;2022-10-26T10:18:59;167672.41;;;20.95;41.00
41688;BME280;27371;42.686;23.362;2022-10-26T10:21:36;167624.06;;;20.76;41.90
41688;BME280;27371;42.686;23.362;2022-10-26T10:27:03;167593.13;;;20.64;41.47
41688;BME280;27371;42.686;23.362;2022-10-26T10:32:19;167594.53;;;20.65;42.05
41688;BME280;27371;42.686;23.362;2022-10-26T10:34:46;167618.69;;;20.74;42.02
41688;BME280;27371;42.686;23.362;2022-10-26T10:40:24;167626.75;;;20.77;42.09
41688;BME280;27371;42.686;23.362;2022-10-26T10:42:52;167618.69;;;20.74;42.13
41688;BME280;27371;42.686;23.362;2022-10-26T10:45:24;167633.47;;;20.80;41.91
41688;BME280;27371;42.686;23.362;2022-10-26T10:48:14;167637.47;;;20.81;41.48
41688;BME280;27371;42.686;23.362;2022-10-26T10:50:59;167645.59;;;20.84;41.59
41688;BME280;27371;42.686;23.362;2022-10-26T10:53:36;167653.63;;;20.87;41.59
41688;BME280;27371;42.686;23.362;2022-10-26T11:04:56;167603.91;;;20.68;41.72
41688;BME280;27371;42.686;23.362;2022-10-26T11:07:27;167583.75;;;20.61;41.71
41688;BME280;27371;42.686;23.362;2022-10-26T11:10:00;167586.41;;;20.62;41.85
41688;BME280;27371;42.686;23.362;2022-10-26T11:12:30;167591.81;;;20.64;41.97
41688;BME280;27371;42.686;23.362;2022-10-26T11:15:01;167585.06;;;20.61;42.07
41688;BME280;27371;42.686;23.362;2022-10-26T11:17:46;167625.41;;;20.77;42.43
41688;BME280;27371;42.686;23.362;2022-10-26T11:20:16;167636.13;;;20.81;42.11
41688;BME280;27371;42.686;23.362;2022-10-26T11:23:07;167624.06;;;20.76;42.31
41688;BME280;27371;42.686;23.362;2022-10-26T11:25:40;167658.97;;;20.89;42.27
41688;BME280;27371;42.686;23.362;2022-10-26T11:28:38;167644.19;;;20.84;42.13
41688;BME280;27371;42.686;23.362;2022-10-26T11:31:04;167645.59;;;20.84;41.70
41688;BME280;27371;42.686;23.362;2022-10-26T11:33:45;167625.41;;;20.77;41.69
41688;BME280;27371;42.686;23.362;2022-10-26T11:36:16;167657.63;;;20.89;41.58
41688;BME280;27371;42.686;23.362;2022-10-26T11:38:54;167680.47;;;20.98;41.27
41688;BME280;27371;42.686;23.362;2022-10-26T11:41:34;167693.94;;;21.03;41.45
41688;BME280;27371;42.686;23.362;2022-10-26T11:46:46;167711.44;;;21.09;40.91
41688;BME280;27371;42.686;23.362;2022-10-26T11:49:26;167718.16;;;21.12;40.65
41688;BME280;27371;42.686;23.362;2022-10-26T11:54:36;167739.66;;;21.20;39.92
41688;BME280;27371;42.686;23.362;2022-10-26T11:57:05;167735.59;;;21.19;39.88
41688;BME280;27371;42.686;23.362;2022-10-26T11:59:36;167761.16;;;21.28;38.96
41688;BME280;27371;42.686;23.362;2022-10-26T12:02:30;167790.78;;;21.40;38.88
41688;BME280;27371;42.686;23.362;2022-10-26T12:05:02;167798.84;;;21.43;38.11
41688;BME280;27371;42.686;23.362;2022-10-26T12:07:32;167794.78;;;21.41;37.68
41688;BME280;27371;42.686;23.362;2022-10-26T12:10:02;167804.19;;;21.45;37.14
41688;BME280;27371;42.686;23.362;2022-10-26T12:12:54;167782.69;;;21.37;36.43
41688;BME280;27371;42.686;23.362;2022-10-26T12:18:13;167796.13;;;21.42;36.69
41688;BME280;27371;42.686;23.362;2022-10-26T12:23:26;167841.88;;;21.59;35.65
41688;BME280;27371;42.686;23.362;2022-10-26T12:34:03;167839.16;;;21.58;35.18
41688;BME280;27371;42.686;23.362;2022-10-26T12:39:36;167863.38;;;21.67;33.98
41688;BME280;27371;42.686;23.362;2022-10-26T12:44:37;167875.44;;;21.72;33.97
41688;BME280;27371;42.686;23.362;2022-10-26T12:47:04;167874.09;;;21.71;33.85
41688;BME280;27371;42.686;23.362;2022-10-26T13:00:28;167915.81;;;21.87;33.80
41688;BME280;27371;42.686;23.362;2022-10-26T13:03:07;167938.66;;;21.96;33.31
41688;BME280;27371;42.686;23.362;2022-10-26T13:08:11;167989.75;;;22.15;33.61
41688;BME280;27371;42.686;23.362;2022-10-26T13:10:44;167988.41;;;22.15;33.53
41688;BME280;27371;42.686;23.362;2022-10-26T13:13:24;167981.69;;;22.12;32.70
41688;BME280;27371;42.686;23.362;2022-10-26T13:15:54;167987.06;;;22.14;32.02
41688;BME280;27371;42.686;23.362;2022-10-26T13:18:21;167991.06;;;22.16;31.67
41688;BME280;27371;42.686;23.362;2022-10-26T13:21:06;167999.19;;;22.19;31.82
41688;BME280;27371;42.686;23.362;2022-10-26T13:23:36;168001.91;;;22.20;31.77
41688;BME280;27371;42.686;23.362;2022-10-26T13:34:17;167995.13;;;22.17;31.38
41688;BME280;27371;42.686;23.362;2022-10-26T13:37:20;168012.66;;;22.24;30.64
41688;BME280;27371;42.686;23.362;2022-10-26T13:39:49;167999.19;;;22.19;30.38
41688;BME280;27371;42.686;23.362;2022-10-26T13:42:43;167995.13;;;22.17;30.23
41688;BME280;27371;42.686;23.362;2022-10-26T13:45:11;167991.06;;;22.16;30.03
41688;BME280;27371;42.686;23.362;2022-10-26T13:48:11;167993.81;;;22.17;29.49
41688;BME280;27371;42.686;23.362;2022-10-26T13:50:51;168001.91;;;22.20;29.27
41688;BME280;27371;42.686;23.362;2022-10-26T13:53:37;167997.84;;;22.18;29.33
41688;BME280;27371;42.686;23.362;2022-10-26T13:56:18;167977.63;;;22.11;29.30
41688;BME280;27371;42.686;23.362;2022-10-26T13:59:07;167933.25;;;21.94;29.20
41688;BME280;27371;42.686;23.362;2022-10-26T14:01:34;167913.13;;;21.86;29.07
41688;BME280;27371;42.686;23.362;2022-10-26T14:04:13;167911.75;;;21.86;29.63
41688;BME280;27371;42.686;23.362;2022-10-26T14:06:39;167895.63;;;21.79;29.54
41688;BME280;27371;42.686;23.362;2022-10-26T14:09:12;167886.22;;;21.76;29.53
41688;BME280;27371;42.686;23.362;2022-10-26T14:11:54;167887.56;;;21.76;29.30
41688;BME280;27371;42.686;23.362;2022-10-26T14:14:31;167863.38;;;21.67;29.41
41688;BME280;27371;42.686;23.362;2022-10-26T14:16:58;167817.63;;;21.50;29.56
41688;BME280;27371;42.686;23.362;2022-10-26T14:21:51;167809.56;;;21.47;29.62
41688;BME280;27371;42.686;23.362;2022-10-26T14:24:27;167801.50;;;21.44;29.74
41688;BME280;27371;42.686;23.362;2022-10-26T14:26:53;167769.22;;;21.31;29.90
41688;BME280;27371;42.686;23.362;2022-10-26T14:29:21;167754.44;;;21.26;29.88
41688;BME280;27371;42.686;23.362;2022-10-26T14:31:47;167739.66;;;21.20;30.34
41688;BME280;27371;42.686;23.362;2022-10-26T14:34:15;167695.25;;;21.03;30.85
41688;BME280;27371;42.686;23.362;2022-10-26T14:36:54;167696.66;;;21.04;30.96
41688;BME280;27371;42.686;23.362;2022-10-26T14:41:55;167642.84;;;20.83;31.30
41688;BME280;27371;42.686;23.362;2022-10-26T14:44:23;167642.84;;;20.83;31.79
41688;BME280;27371;42.686;23.362;2022-10-26T14:46:50;167613.31;;;20.72;31.90
41688;BME280;27371;42.686;23.362;2022-10-26T14:49:24;167616.03;;;20.73;32.12
41688;BME280;27371;42.686;23.362;2022-10-26T14:52:04;167578.34;;;20.59;32.26
41688;BME280;27371;42.686;23.362;2022-10-26T14:54:31;167555.47;;;20.50;32.16
41688;BME280;27371;42.686;23.362;2022-10-26T14:56:58;167558.19;;;20.51;32.15
41688;BME280;27371;42.686;23.362;2022-10-26T14:59:28;167546.06;;;20.46;32.27
41688;BME280;27371;42.686;23.362;2022-10-26T15:04:40;167516.53;;;20.35;32.07
41688;BME280;27371;42.686;23.362;2022-10-26T15:09:38;167482.91;;;20.22;31.70
41688;BME280;27371;42.686;23.362;2022-10-26T15:12:05;167441.25;;;20.07;32.21
41688;BME280;27371;42.686;23.362;2022-10-26T15:14:32;167456.03;;;20.12;32.16